createdAt,value
2019-03-24T00:01:26.181Z,3.63
2019-03-24T00:03:56.978Z,3.75
2019-03-24T00:06:27.733Z,3.87
2019-03-24T00:08:58.474Z,3.75
2019-03-24T00:11:29.646Z,3.70
2019-03-24T00:14:00.375Z,3.64
2019-03-24T00:16:31.204Z,3.44
2019-03-24T00:19:01.969Z,3.29
2019-03-24T00:21:32.748Z,3.28
2019-03-24T00:24:03.481Z,3.25
2019-03-24T00:26:34.194Z,3.20
2019-03-24T00:29:05.078Z,3.05
2019-03-24T00:31:35.851Z,3.02
2019-03-24T00:34:06.774Z,2.94
2019-03-24T00:36:37.503Z,2.78
2019-03-24T00:39:08.999Z,2.72
2019-03-24T00:41:39.785Z,2.70
2019-03-24T00:44:10.632Z,2.64
2019-03-24T00:46:41.345Z,2.61
2019-03-24T00:49:12.462Z,2.69
2019-03-24T00:51:43.341Z,2.59
2019-03-24T00:54:14.143Z,2.64
2019-03-24T00:56:44.921Z,2.67
2019-03-24T00:59:16.103Z,2.59
2019-03-24T01:01:46.823Z,2.62
2019-03-24T01:04:17.664Z,2.57
2019-03-24T01:06:48.743Z,2.52
2019-03-24T01:09:19.640Z,2.42
2019-03-24T01:11:50.447Z,2.38
2019-03-24T01:14:21.244Z,2.32
2019-03-24T01:16:52.050Z,2.29
2019-03-24T01:19:22.925Z,2.31
2019-03-24T01:21:53.744Z,2.20
2019-03-24T01:24:24.490Z,2.15
2019-03-24T01:26:55.260Z,2.21
2019-03-24T01:29:26.128Z,2.32
2019-03-24T01:31:56.858Z,2.28
2019-03-24T01:34:27.677Z,2.17
2019-03-24T01:36:58.556Z,2.26
2019-03-24T01:39:29.313Z,2.34
2019-03-24T01:42:00.469Z,2.35
2019-03-24T01:44:31.243Z,2.28
2019-03-24T01:47:02.003Z,2.03
2019-03-24T01:49:32.717Z,1.89
2019-03-24T01:52:03.568Z,1.88
2019-03-24T01:54:34.306Z,1.89
2019-03-24T01:57:05.123Z,1.89
2019-03-24T01:59:35.853Z,1.85
2019-03-24T02:02:07.880Z,1.98
2019-03-24T02:04:38.608Z,1.83
2019-03-24T02:07:09.419Z,1.91
2019-03-24T02:09:40.399Z,2.11
2019-03-24T02:12:11.261Z,2.16
2019-03-24T02:14:42.036Z,2.10
2019-03-24T02:17:12.839Z,2.04
2019-03-24T02:19:43.655Z,1.84
2019-03-24T02:22:14.514Z,1.77
2019-03-24T02:24:45.263Z,1.67
2019-03-24T02:27:16.154Z,1.66
2019-03-24T02:29:46.882Z,1.63
2019-03-24T02:32:17.846Z,1.74
2019-03-24T02:34:48.830Z,1.81
2019-03-24T02:37:19.616Z,1.81
2019-03-24T02:39:50.328Z,1.71
2019-03-24T02:42:21.072Z,1.60
2019-03-24T02:44:52.080Z,1.43
2019-03-24T02:47:22.847Z,1.44
2019-03-24T02:49:53.553Z,1.50
2019-03-24T02:52:24.269Z,1.59
2019-03-24T02:54:54.998Z,1.63
2019-03-24T02:57:25.817Z,1.64
2019-03-24T02:59:56.540Z,1.48
2019-03-24T03:02:27.768Z,1.45
2019-03-24T03:04:58.598Z,1.47
2019-03-24T03:07:29.416Z,1.34
2019-03-24T03:10:00.461Z,1.16
2019-03-24T03:12:31.245Z,1.15
2019-03-24T03:15:01.984Z,1.05
2019-03-24T03:17:32.839Z,1.00
2019-03-24T03:20:04.184Z,1.03
2019-03-24T03:22:34.924Z,0.93
2019-03-24T03:25:06.476Z,1.00
2019-03-24T03:27:37.275Z,1.05
2019-03-24T03:30:09.809Z,1.07
2019-03-24T03:32:40.690Z,1.06
2019-03-24T03:35:11.731Z,1.10
2019-03-24T03:37:42.987Z,0.96
2019-03-24T03:40:14.037Z,0.89
2019-03-24T03:42:44.769Z,0.95
2019-03-24T03:45:23.833Z,0.93
2019-03-24T03:47:54.604Z,0.96
2019-03-24T03:50:25.420Z,0.78
2019-03-24T03:52:56.335Z,0.61
2019-03-24T03:55:27.089Z,0.53
2019-03-24T03:57:57.859Z,0.71
2019-03-24T04:00:35.126Z,0.59
2019-03-24T04:03:06.907Z,0.65
2019-03-24T04:05:37.913Z,0.52
2019-03-24T04:08:09.195Z,0.57
2019-03-24T04:10:39.997Z,0.54
2019-03-24T04:13:10.795Z,0.46
2019-03-24T04:15:41.538Z,0.45
2019-03-24T04:18:12.406Z,0.60
2019-03-24T04:20:43.228Z,0.62
2019-03-24T04:23:14.066Z,0.77
2019-03-24T04:25:44.862Z,0.64
2019-03-24T04:28:15.626Z,0.52
2019-03-24T04:30:46.334Z,0.61
2019-03-24T04:33:17.108Z,0.54
2019-03-24T04:35:47.889Z,0.57
2019-03-24T04:38:19.142Z,0.60
2019-03-24T04:40:50.121Z,0.48
2019-03-24T04:43:20.879Z,0.42
2019-03-24T04:45:51.620Z,0.58
2019-03-24T04:48:22.368Z,0.42
2019-03-24T04:50:53.237Z,0.48
2019-03-24T04:53:24.880Z,0.71
2019-03-24T04:55:56.369Z,0.72
2019-03-24T04:58:27.118Z,0.50
2019-03-24T05:00:58.057Z,0.34
2019-03-24T05:03:28.769Z,0.34
2019-03-24T05:05:59.478Z,0.44
2019-03-24T05:08:31.260Z,0.44
2019-03-24T05:11:02.800Z,0.32
2019-03-24T05:13:33.543Z,0.26
2019-03-24T05:16:05.437Z,0.14
2019-03-24T05:18:36.184Z,0.32
2019-03-24T05:21:07.000Z,0.21
2019-03-24T05:23:37.741Z,0.14
2019-03-24T05:26:09.065Z,0.14
2019-03-24T05:28:39.762Z,0.28
2019-03-24T05:31:10.562Z,0.41
2019-03-24T05:33:41.304Z,0.46
2019-03-24T05:36:12.653Z,0.54
2019-03-24T05:38:43.367Z,0.54
2019-03-24T05:41:15.271Z,0.58
2019-03-24T05:43:47.029Z,0.62
2019-03-24T05:46:18.254Z,0.65
2019-03-24T05:48:48.992Z,0.72
2019-03-24T05:51:19.712Z,0.65
2019-03-24T05:53:50.462Z,0.62
2019-03-24T05:56:21.190Z,0.64
2019-03-24T05:58:52.092Z,0.74
2019-03-24T06:01:23.156Z,0.82
2019-03-24T06:03:54.042Z,0.98
2019-03-24T06:06:24.968Z,1.11
2019-03-24T06:08:55.717Z,1.20
2019-03-24T06:11:26.514Z,1.28
2019-03-24T06:13:57.506Z,1.32
2019-03-24T06:16:28.798Z,1.47
2019-03-24T06:18:59.581Z,1.84
2019-03-24T06:21:30.321Z,2.12
2019-03-24T06:24:01.423Z,2.54
2019-03-24T06:26:32.793Z,2.87
2019-03-24T06:29:03.692Z,3.13
2019-03-24T06:31:34.464Z,3.48
2019-03-24T06:34:05.414Z,3.89
2019-03-24T06:36:36.228Z,4.21
2019-03-24T06:39:08.635Z,4.47
2019-03-24T06:41:39.446Z,4.64
2019-03-24T06:44:10.438Z,4.88
2019-03-24T06:46:41.166Z,5.21
2019-03-24T06:49:11.919Z,5.60
2019-03-24T06:51:43.259Z,5.89
2019-03-24T06:54:14.059Z,5.79
2019-03-24T06:56:44.792Z,5.76
2019-03-24T06:59:15.519Z,6.00
2019-03-24T07:01:46.310Z,6.44
2019-03-24T07:04:16.983Z,6.69
2019-03-24T07:06:47.694Z,6.99
2019-03-24T07:09:18.436Z,7.64
2019-03-24T07:11:49.303Z,8.23
2019-03-24T07:14:20.113Z,8.50
2019-03-24T07:16:50.833Z,8.91
2019-03-24T07:19:21.623Z,9.32
2019-03-24T07:21:52.408Z,9.69
2019-03-24T07:24:23.422Z,9.97
2019-03-24T07:26:54.155Z,10.43
2019-03-24T07:29:24.909Z,10.29
2019-03-24T07:31:55.768Z,10.07
2019-03-24T07:34:26.513Z,10.63
2019-03-24T07:36:57.256Z,11.44
2019-03-24T07:39:28.010Z,12.07
2019-03-24T07:41:59.102Z,11.75
2019-03-24T07:44:29.917Z,12.84
2019-03-24T07:47:02.385Z,13.42
2019-03-24T07:49:33.110Z,13.63
2019-03-24T07:52:03.828Z,14.28
2019-03-24T07:54:34.641Z,14.81
2019-03-24T07:57:05.500Z,15.47
2019-03-24T07:59:36.272Z,15.46
2019-03-24T08:02:07.183Z,15.76
2019-03-24T08:04:37.945Z,16.12
2019-03-24T08:07:08.680Z,15.79
2019-03-24T08:09:39.410Z,15.95
2019-03-24T08:12:10.179Z,15.13
2019-03-24T08:14:40.989Z,15.59
2019-03-24T08:17:11.721Z,16.37
2019-03-24T08:19:42.534Z,17.15
2019-03-24T08:22:13.576Z,17.27
2019-03-24T08:24:44.389Z,18.01
2019-03-24T08:27:15.202Z,18.46
2019-03-24T08:29:45.935Z,18.51
2019-03-24T08:32:16.713Z,19.29
2019-03-24T08:34:48.480Z,20.05
2019-03-24T08:37:19.337Z,20.24
2019-03-24T08:39:50.067Z,19.38
2019-03-24T08:42:20.820Z,20.74
2019-03-24T08:44:52.006Z,21.94
2019-03-24T08:47:22.874Z,22.47
2019-03-24T08:49:53.583Z,22.26
2019-03-24T08:52:24.309Z,22.80
2019-03-24T08:54:55.094Z,22.95
2019-03-24T08:57:25.860Z,24.09
2019-03-24T08:59:56.632Z,23.52
2019-03-24T09:02:27.627Z,23.65
2019-03-24T09:04:58.371Z,24.84
2019-03-24T09:07:29.531Z,25.15
2019-03-24T09:10:00.379Z,23.38
2019-03-24T09:12:31.328Z,22.57
2019-03-24T09:15:02.100Z,22.68
2019-03-24T09:17:32.879Z,23.51
2019-03-24T09:20:03.746Z,23.93
2019-03-24T09:22:34.554Z,24.09
2019-03-24T09:25:05.600Z,23.63
2019-03-24T09:27:36.351Z,24.48
2019-03-24T09:30:11.597Z,25.53
2019-03-24T09:32:42.378Z,24.03
2019-03-24T09:35:13.395Z,24.98
2019-03-24T09:37:44.120Z,24.73
2019-03-24T09:40:19.824Z,25.33
2019-03-24T09:42:50.597Z,25.43
2019-03-24T09:45:21.294Z,25.26
2019-03-24T09:47:52.506Z,25.04
2019-03-24T09:50:23.371Z,25.95
2019-03-24T09:52:54.301Z,26.14
2019-03-24T09:55:25.495Z,27.03
2019-03-24T09:57:56.356Z,27.77
2019-03-24T10:00:27.671Z,26.77
2019-03-24T10:02:58.653Z,26.23
2019-03-24T10:05:29.418Z,26.41
2019-03-24T10:08:00.983Z,25.11
2019-03-24T10:10:31.768Z,25.98
2019-03-24T10:13:02.912Z,24.40
2019-03-24T10:15:33.688Z,24.39
2019-03-24T10:18:04.785Z,25.84
2019-03-24T10:20:35.587Z,26.11
2019-03-24T10:23:06.382Z,27.43
2019-03-24T10:25:37.173Z,27.24
2019-03-24T10:28:08.327Z,28.61
2019-03-24T10:30:39.484Z,28.75
2019-03-24T10:33:10.292Z,30.40
2019-03-24T10:35:41.164Z,28.13
2019-03-24T10:38:12.174Z,29.39
2019-03-24T10:40:42.989Z,27.65
2019-03-24T10:43:14.511Z,28.22
2019-03-24T10:45:45.250Z,27.85
2019-03-24T10:48:16.592Z,26.29
2019-03-24T10:50:47.372Z,25.11
2019-03-24T10:53:18.229Z,21.93
2019-03-24T10:55:49.066Z,22.80
2019-03-24T10:58:20.527Z,23.78
2019-03-24T11:00:51.340Z,25.22
2019-03-24T11:03:22.084Z,25.32
2019-03-24T11:05:53.067Z,20.94
2019-03-24T11:08:23.838Z,20.03
2019-03-24T11:10:54.913Z,20.48
2019-03-24T11:13:25.675Z,18.95
2019-03-24T11:15:56.416Z,19.16
2019-03-24T11:18:27.194Z,21.33
2019-03-24T11:20:58.012Z,22.70
2019-03-24T11:23:28.789Z,21.82
2019-03-24T11:25:59.659Z,18.38
2019-03-24T11:28:30.708Z,17.67
2019-03-24T11:31:01.617Z,17.88
2019-03-24T11:33:32.383Z,17.20
2019-03-24T11:36:03.156Z,16.18
2019-03-24T11:38:33.997Z,18.04
2019-03-24T11:41:05.149Z,18.63
2019-03-24T11:43:35.978Z,18.97
2019-03-24T11:46:06.890Z,20.76
2019-03-24T11:48:37.767Z,21.17
2019-03-24T11:51:08.578Z,20.57
2019-03-24T11:53:39.550Z,21.89
2019-03-24T11:56:10.360Z,22.50
2019-03-24T11:58:41.461Z,21.63
2019-03-24T12:01:12.531Z,18.54
2019-03-24T12:03:43.638Z,21.48
2019-03-24T12:06:15.131Z,20.49
2019-03-24T12:08:45.924Z,20.35
2019-03-24T12:11:16.631Z,19.43
2019-03-24T12:13:47.368Z,19.99
2019-03-24T12:16:18.126Z,18.67
2019-03-24T12:18:48.864Z,20.75
2019-03-24T12:21:19.690Z,22.15
2019-03-24T12:23:51.139Z,22.03
2019-03-24T12:26:21.906Z,21.91
2019-03-24T12:28:52.645Z,22.36
2019-03-24T12:31:23.381Z,21.01
2019-03-24T12:33:54.609Z,21.59
2019-03-24T12:36:25.545Z,23.84
2019-03-24T12:38:56.531Z,25.41
2019-03-24T12:41:27.498Z,24.66
2019-03-24T12:43:58.632Z,25.29
2019-03-24T12:46:30.184Z,26.29
2019-03-24T12:49:00.990Z,21.82
2019-03-24T12:51:31.792Z,24.35
2019-03-24T12:54:02.528Z,24.43
2019-03-24T12:56:33.332Z,20.02
2019-03-24T12:59:04.400Z,17.55
2019-03-24T13:01:35.197Z,16.37
2019-03-24T13:04:06.127Z,16.44
2019-03-24T13:06:36.924Z,16.03
2019-03-24T13:09:09.030Z,15.68
2019-03-24T13:11:39.924Z,16.21
2019-03-24T13:14:10.720Z,16.32
2019-03-24T13:16:41.501Z,15.44
2019-03-24T13:19:12.235Z,15.57
2019-03-24T13:21:43.004Z,15.64
2019-03-24T13:24:13.817Z,15.82
2019-03-24T13:26:44.560Z,16.60
2019-03-24T13:29:15.981Z,18.12
2019-03-24T13:31:48.279Z,20.28
2019-03-24T13:34:19.223Z,20.42
2019-03-24T13:36:49.996Z,19.74
2019-03-24T13:39:20.828Z,18.71
2019-03-24T13:41:51.648Z,20.06
2019-03-24T13:44:22.383Z,19.50
2019-03-24T13:46:53.164Z,18.46
2019-03-24T13:49:23.980Z,20.09
2019-03-24T13:51:55.003Z,21.63
2019-03-24T13:54:25.722Z,20.26
2019-03-24T13:56:56.507Z,19.24
2019-03-24T13:59:28.091Z,19.63
2019-03-24T14:01:58.922Z,19.01
2019-03-24T14:04:29.657Z,20.90
2019-03-24T14:07:00.367Z,21.67
2019-03-24T14:09:31.936Z,20.84
2019-03-24T14:12:02.849Z,20.67
2019-03-24T14:14:33.601Z,18.04
2019-03-24T14:17:04.345Z,17.88
2019-03-24T14:19:35.326Z,17.04
2019-03-24T14:22:06.214Z,17.15
2019-03-24T14:24:36.964Z,18.09
2019-03-24T14:27:07.744Z,18.05
2019-03-24T14:29:38.555Z,16.50
2019-03-24T14:32:09.357Z,16.95
2019-03-24T14:34:40.088Z,16.41
2019-03-24T14:37:11.855Z,15.74
2019-03-24T14:39:42.720Z,15.65
2019-03-24T14:42:13.540Z,15.37
2019-03-24T14:44:44.540Z,15.41
2019-03-24T14:47:15.283Z,15.45
2019-03-24T14:49:46.012Z,15.50
2019-03-24T14:52:16.722Z,15.31
2019-03-24T14:54:47.457Z,15.22
2019-03-24T14:57:18.225Z,15.14
2019-03-24T14:59:48.998Z,15.16
2019-03-24T15:02:19.776Z,15.23
2019-03-24T15:04:51.237Z,15.64
2019-03-24T15:07:21.979Z,16.01
2019-03-24T15:09:52.725Z,15.91
2019-03-24T15:12:23.726Z,15.59
2019-03-24T15:14:54.534Z,15.61
2019-03-24T15:17:25.373Z,15.41
2019-03-24T15:19:56.107Z,15.57
2019-03-24T15:22:26.905Z,15.47
2019-03-24T15:24:57.943Z,15.34
2019-03-24T15:27:28.667Z,15.66
2019-03-24T15:29:59.413Z,15.26
2019-03-24T15:32:30.149Z,14.93
2019-03-24T15:35:00.947Z,14.96
2019-03-24T15:37:31.718Z,14.80
2019-03-24T15:40:02.717Z,14.66
2019-03-24T15:42:33.546Z,14.59
2019-03-24T15:45:04.382Z,14.60
2019-03-24T15:47:35.244Z,14.58
2019-03-24T15:50:06.880Z,14.31
2019-03-24T15:52:37.783Z,14.50
2019-03-24T15:55:09.070Z,14.50
2019-03-24T15:57:39.776Z,14.56
2019-03-24T16:00:11.746Z,14.57
2019-03-24T16:02:42.544Z,14.54
2019-03-24T16:05:13.461Z,14.51
2019-03-24T16:07:44.239Z,14.39
2019-03-24T16:10:15.549Z,14.04
2019-03-24T16:12:46.328Z,13.86
2019-03-24T16:15:17.220Z,13.86
2019-03-24T16:17:47.963Z,13.80
2019-03-24T16:20:18.711Z,13.52
2019-03-24T16:22:49.483Z,13.48
2019-03-24T16:25:20.203Z,13.45
2019-03-24T16:27:51.085Z,13.37
2019-03-24T16:30:21.846Z,13.29
2019-03-24T16:32:52.578Z,13.19
2019-03-24T16:35:23.387Z,13.14
2019-03-24T16:37:54.183Z,13.09
2019-03-24T16:40:25.015Z,13.03
2019-03-24T16:42:55.783Z,12.94
2019-03-24T16:45:26.499Z,12.86
2019-03-24T16:47:57.409Z,12.83
2019-03-24T16:50:28.475Z,12.72
2019-03-24T16:52:59.216Z,12.64
2019-03-24T16:55:29.932Z,12.59
2019-03-24T16:58:00.831Z,12.47
2019-03-24T17:00:31.636Z,12.44
2019-03-24T17:03:02.370Z,12.34
2019-03-24T17:05:34.005Z,12.23
2019-03-24T17:08:05.251Z,12.12
2019-03-24T17:10:36.012Z,12.01
2019-03-24T17:13:07.027Z,11.85
2019-03-24T17:15:37.813Z,11.84
2019-03-24T17:18:08.725Z,11.88
2019-03-24T17:20:39.637Z,11.85
2019-03-24T17:23:10.456Z,11.81
2019-03-24T17:25:41.279Z,11.75
2019-03-24T17:28:12.319Z,11.59
2019-03-24T17:30:43.125Z,11.48
2019-03-24T17:33:13.889Z,11.40
2019-03-24T17:35:44.640Z,11.46
2019-03-24T17:38:15.357Z,11.46
2019-03-24T17:40:46.506Z,11.38
2019-03-24T17:43:17.305Z,11.16
2019-03-24T17:45:49.066Z,11.04
2019-03-24T17:48:19.852Z,11.01
2019-03-24T17:50:50.562Z,10.87
2019-03-24T17:53:21.550Z,10.92
2019-03-24T17:55:52.341Z,10.77
2019-03-24T17:58:23.148Z,10.78
2019-03-24T18:00:55.940Z,10.66
2019-03-24T18:03:26.754Z,10.61
2019-03-24T18:05:59.562Z,10.49
2019-03-24T18:08:30.105Z,10.39
2019-03-24T18:11:00.891Z,10.32
2019-03-24T18:13:31.731Z,10.13
2019-03-24T18:16:02.632Z,10.14
2019-03-24T18:18:33.432Z,10.04
2019-03-24T18:21:04.558Z,10.06
2019-03-24T18:23:35.335Z,9.92
2019-03-24T18:26:06.372Z,9.98
2019-03-24T18:28:37.113Z,9.80
2019-03-24T18:31:08.247Z,9.73
2019-03-24T18:33:39.065Z,9.62
2019-03-24T18:36:09.843Z,9.55
2019-03-24T18:38:40.584Z,9.42
2019-03-24T18:41:11.456Z,9.32
2019-03-24T18:43:42.272Z,9.24
2019-03-24T18:46:13.088Z,9.20
2019-03-24T18:48:43.814Z,9.33
2019-03-24T18:51:14.549Z,9.44
2019-03-24T18:53:45.306Z,9.35
2019-03-24T18:56:16.083Z,9.19
2019-03-24T18:58:46.849Z,9.35
2019-03-24T19:01:17.582Z,9.34
2019-03-24T19:03:48.616Z,9.47
2019-03-24T19:06:19.446Z,9.75
2019-03-24T19:08:50.308Z,9.81
2019-03-24T19:11:21.314Z,9.79
2019-03-24T19:13:52.030Z,9.85
2019-03-24T19:16:23.096Z,9.98
2019-03-24T19:18:53.846Z,10.07
2019-03-24T19:21:24.875Z,10.07
2019-03-24T19:23:55.981Z,10.09
2019-03-24T19:26:26.833Z,9.99
2019-03-24T19:28:57.614Z,9.92
2019-03-24T19:31:28.816Z,9.87
2019-03-24T19:33:59.627Z,9.84
2019-03-24T19:36:30.586Z,9.76
2019-03-24T19:39:01.537Z,9.65
2019-03-24T19:41:32.419Z,9.55
2019-03-24T19:44:03.175Z,9.43
2019-03-24T19:46:34.243Z,9.40
2019-03-24T19:49:05.190Z,9.18
2019-03-24T19:51:36.019Z,9.08
2019-03-24T19:54:07.090Z,9.15
2019-03-24T19:56:38.075Z,9.15
2019-03-24T19:59:08.830Z,8.89
2019-03-24T20:01:39.757Z,8.83
2019-03-24T20:04:11.142Z,8.79
2019-03-24T20:06:41.883Z,8.91
2019-03-24T20:09:14.729Z,8.76
2019-03-24T20:11:45.613Z,8.60
2019-03-24T20:14:16.670Z,8.59
2019-03-24T20:16:47.486Z,8.78
2019-03-24T20:19:18.316Z,8.69
2019-03-24T20:21:49.031Z,8.64
2019-03-24T20:24:19.778Z,8.62
2019-03-24T20:26:50.516Z,8.64
2019-03-24T20:29:21.336Z,8.75
2019-03-24T20:31:52.191Z,8.64
2019-03-24T20:34:23.318Z,8.75
2019-03-24T20:36:54.085Z,8.90
2019-03-24T20:39:25.196Z,9.06
2019-03-24T20:41:55.990Z,9.17
2019-03-24T20:44:27.017Z,9.16
2019-03-24T20:46:57.841Z,9.09
2019-03-24T20:49:28.718Z,9.08
2019-03-24T20:51:59.455Z,9.09
2019-03-24T20:54:30.377Z,9.23
2019-03-24T20:57:01.125Z,9.21
2019-03-24T20:59:31.901Z,9.25
2019-03-24T21:02:02.662Z,9.27
2019-03-24T21:04:33.429Z,9.23
2019-03-24T21:07:04.549Z,9.24
2019-03-24T21:09:36.031Z,9.22
2019-03-24T21:12:07.092Z,9.01
2019-03-24T21:14:37.856Z,8.74
2019-03-24T21:17:08.644Z,8.65
2019-03-24T21:19:39.488Z,8.54
2019-03-24T21:22:10.713Z,8.51
2019-03-24T21:24:41.447Z,8.58
2019-03-24T21:27:12.170Z,8.62
2019-03-24T21:29:43.262Z,8.79
2019-03-24T21:32:14.009Z,8.77
2019-03-24T21:34:44.757Z,8.79
2019-03-24T21:37:15.527Z,8.82
2019-03-24T21:39:46.297Z,8.93
2019-03-24T21:42:17.135Z,9.09
2019-03-24T21:44:47.895Z,9.25
2019-03-24T21:47:18.789Z,9.34
2019-03-24T21:49:50.317Z,9.36
2019-03-24T21:52:21.029Z,9.42
2019-03-24T21:54:51.792Z,9.45
2019-03-24T21:57:22.530Z,9.40
2019-03-24T21:59:53.279Z,9.38
2019-03-24T22:02:24.894Z,9.44
2019-03-24T22:04:56.059Z,9.43
2019-03-24T22:07:26.907Z,9.39
2019-03-24T22:09:57.837Z,9.38
2019-03-24T22:12:28.609Z,9.32
2019-03-24T22:14:59.451Z,9.32
2019-03-24T22:17:30.441Z,9.33
2019-03-24T22:20:01.219Z,9.30
2019-03-24T22:22:32.157Z,9.32
2019-03-24T22:25:02.942Z,9.32
2019-03-24T22:27:33.778Z,9.28
2019-03-24T22:30:04.867Z,9.26
2019-03-24T22:32:35.687Z,9.22
2019-03-24T22:35:06.672Z,9.17
2019-03-24T22:37:37.402Z,9.13
2019-03-24T22:40:09.439Z,9.09
2019-03-24T22:42:40.162Z,9.12
2019-03-24T22:45:11.217Z,9.13
2019-03-24T22:47:42.002Z,9.13
2019-03-24T22:50:14.686Z,9.05
2019-03-24T22:52:45.499Z,9.03
2019-03-24T22:55:16.975Z,8.99
2019-03-24T22:57:47.751Z,8.97
2019-03-24T23:00:23.352Z,8.93
2019-03-24T23:02:54.506Z,8.92
2019-03-24T23:05:25.541Z,8.88
2019-03-24T23:07:56.277Z,8.83
2019-03-24T23:10:27.681Z,8.79
2019-03-24T23:12:58.491Z,8.68
2019-03-24T23:15:29.457Z,8.69
2019-03-24T23:18:00.178Z,8.65
2019-03-24T23:20:31.102Z,8.61
2019-03-24T23:23:01.919Z,8.58
2019-03-24T23:25:32.686Z,8.51
2019-03-24T23:28:03.414Z,8.53
2019-03-24T23:30:34.166Z,8.50
2019-03-24T23:33:05.047Z,8.46
2019-03-24T23:35:35.947Z,8.41
2019-03-24T23:38:06.921Z,8.37
2019-03-24T23:40:37.669Z,8.37
2019-03-24T23:43:08.750Z,8.32
2019-03-24T23:45:39.565Z,8.28
2019-03-24T23:48:10.329Z,8.26
2019-03-24T23:50:41.095Z,8.31
2019-03-24T23:53:11.800Z,8.36
2019-03-24T23:55:42.635Z,8.29
2019-03-24T23:58:13.357Z,8.28
